Marion, South Dakota
Current Conditions -  °F | °C
As of 1:56 AM on Saturday 20 Dec 2014 (Local Time) from KFSD Reporting Station
Overcast Overcast  
Wind Chill: 23°   Ceiling: 1100
Heat Index: 31°   Visibility: 7mi
Dew Point: 28°   Wind: 8mph
Humidity: 89%   Direction: 170°S
Pressure: 30.06"   Gusts: NA
Location:  43.42°N, 97.26°W
Report Text: KFSD 200756Z AUTO 17007KT 7SM OVC011 M01/M02 A3006 RMK AO2 SLP196 T10061022
Loading
Personal Weather Stations






























Interactive Weather Map New forecast layout! Learn more

10-Day Weather Forecast

Advertisements
Track Severe Weather on mobile